Time,TemperatureF,DewpointF,PressureIn,WindDirection,WindDirectionDegrees,WindSpeedMPH,WindSpeedGustMPH,Humidity,HourlyPrecipIn,Conditions,Clouds,dailyrainin,SoftwareType,DateUTC
2013-02-14 00:01:00,47.0,40.0,30.17,WNW,284,0.0,2.0,77,0.00,,,0.00,,2013-02-14 08:01:00,
2013-02-14 00:11:00,47.0,40.0,30.17,WNW,284,0.0,2.0,77,0.00,,,0.00,,2013-02-14 08:11:00,
2013-02-14 00:21:00,47.0,41.0,30.17,WNW,284,0.0,2.0,78,0.00,,,0.00,,2013-02-14 08:21:00,
2013-02-14 00:31:00,47.0,41.0,30.17,WNW,284,0.0,2.0,78,0.00,,,0.00,,2013-02-14 08:31:00,
2013-02-14 00:43:00,47.0,41.0,30.17,WNW,284,0.0,2.0,78,0.00,,,0.00,,2013-02-14 08:43:00,
2013-02-14 00:52:00,47.0,41.0,30.17,WNW,284,0.0,0.0,80,0.00,,,0.00,,2013-02-14 08:52:00,
2013-02-14 01:01:00,47.0,41.0,30.17,WNW,284,0.0,0.0,80,0.00,,,0.00,,2013-02-14 09:01:00,
2013-02-14 01:11:00,46.0,41.0,30.17,WNW,284,0.0,1.0,81,0.00,,,0.00,,2013-02-14 09:11:00,
2013-02-14 01:21:00,46.0,41.0,30.17,WNW,284,0.0,1.0,81,0.00,,,0.00,,2013-02-14 09:21:00,
2013-02-14 01:31:00,46.0,41.0,30.17,WNW,284,0.0,1.0,81,0.00,,,0.00,,2013-02-14 09:31:00,
2013-02-14 01:41:00,46.0,41.0,30.17,WNW,284,0.0,1.0,81,0.00,,,0.00,,2013-02-14 09:41:00,
2013-02-14 01:51:00,46.0,41.0,30.16,WNW,284,0.0,0.0,83,0.00,,,0.00,,2013-02-14 09:51:00,
2013-02-14 02:02:00,46.0,41.0,30.16,WNW,284,0.0,0.0,83,0.00,,,0.00,,2013-02-14 10:02:00,
2013-02-14 02:11:00,45.0,40.0,30.16,WNW,284,0.0,1.0,84,0.00,,,0.00,,2013-02-14 10:11:00,
2013-02-14 02:21:00,45.0,40.0,30.16,WNW,284,0.0,1.0,84,0.00,,,0.00,,2013-02-14 10:21:00,
2013-02-14 02:31:00,45.0,41.0,30.15,WNW,284,0.0,1.0,85,0.00,,,0.00,,2013-02-14 10:31:00,
2013-02-14 02:42:00,45.0,41.0,30.15,WNW,284,0.0,1.0,85,0.00,,,0.00,,2013-02-14 10:42:00,
2013-02-14 02:52:00,45.0,41.0,30.15,WNW,284,0.0,1.0,85,0.00,,,0.00,,2013-02-14 10:52:00,
2013-02-14 03:01:00,44.0,40.0,30.14,WNW,284,0.0,1.0,85,0.00,,,0.00,,2013-02-14 11:01:00,
2013-02-14 03:11:00,44.0,40.0,30.14,WNW,284,0.0,1.0,85,0.00,,,0.00,,2013-02-14 11:11:00,
2013-02-14 03:21:00,44.0,40.0,30.14,WNW,284,0.0,1.0,85,0.00,,,0.00,,2013-02-14 11:21:00,
2013-02-14 03:31:00,44.0,40.0,30.14,WNW,284,0.0,1.0,85,0.00,,,0.00,,2013-02-14 11:31:00,
2013-02-14 03:41:00,44.0,40.0,30.14,WNW,284,0.0,1.0,85,0.00,,,0.00,,2013-02-14 11:41:00,
2013-02-14 03:52:00,44.0,40.0,30.14,WNW,284,0.0,0.0,85,0.00,,,0.00,,2013-02-14 11:52:00,
2013-02-14 04:01:00,44.0,40.0,30.14,WNW,285,0.0,0.0,85,0.00,,,0.00,,2013-02-14 12:01:00,
2013-02-14 04:11:00,44.0,40.0,30.14,WNW,285,0.0,0.0,85,0.00,,,0.00,,2013-02-14 12:11:00,
2013-02-14 04:21:00,44.0,39.0,30.14,WNW,284,0.0,1.0,84,0.00,,,0.00,,2013-02-14 12:21:00,
2013-02-14 04:31:00,44.0,39.0,30.14,WNW,284,0.0,0.0,84,0.00,,,0.00,,2013-02-14 12:31:00,
2013-02-14 04:41:00,44.0,39.0,30.15,WNW,284,1.0,2.0,84,0.00,,,0.00,,2013-02-14 12:41:00,
2013-02-14 04:53:00,44.0,39.0,30.15,WNW,284,1.0,2.0,84,0.00,,,0.00,,2013-02-14 12:53:00,
2013-02-14 05:01:00,43.0,39.0,30.15,WNW,285,0.0,3.0,85,0.00,,,0.00,,2013-02-14 13:01:00,
2013-02-14 05:11:00,43.0,39.0,30.15,WNW,285,0.0,3.0,85,0.00,,,0.00,,2013-02-14 13:11:00,
2013-02-14 05:21:00,43.0,39.0,30.15,WNW,285,0.0,1.0,85,0.00,,,0.00,,2013-02-14 13:21:00,
2013-02-14 05:31:00,42.0,38.0,30.14,WNW,285,0.0,1.0,85,0.00,,,0.00,,2013-02-14 13:31:00,
2013-02-14 05:41:00,42.0,38.0,30.14,WNW,285,0.0,1.0,85,0.00,,,0.00,,2013-02-14 13:41:00,
2013-02-14 05:51:00,42.0,38.0,30.14,WNW,285,0.0,0.0,85,0.00,,,0.00,,2013-02-14 13:51:00,
2013-02-14 06:01:00,42.0,38.0,30.14,WNW,285,0.0,0.0,86,0.00,,,0.00,,2013-02-14 14:01:00,
2013-02-14 06:11:00,42.0,38.0,30.14,WNW,285,0.0,1.0,86,0.00,,,0.00,,2013-02-14 14:11:00,
2013-02-14 06:21:00,42.0,38.0,30.14,WNW,285,0.0,1.0,86,0.00,,,0.00,,2013-02-14 14:21:00,
2013-02-14 06:31:00,43.0,39.0,30.13,WNW,285,0.0,0.0,86,0.00,,,0.00,,2013-02-14 14:31:00,
2013-02-14 06:41:00,43.0,39.0,30.13,WNW,285,0.0,0.0,86,0.00,,,0.00,,2013-02-14 14:41:00,
2013-02-14 06:52:00,42.0,38.0,30.13,WNW,285,0.0,1.0,86,0.00,,,0.00,,2013-02-14 14:52:00,
2013-02-14 07:01:00,42.0,38.0,30.13,WNW,285,0.0,1.0,86,0.00,,,0.00,,2013-02-14 15:01:00,
2013-02-14 07:11:00,42.0,38.0,30.13,WNW,285,0.0,1.0,86,0.00,,,0.00,,2013-02-14 15:11:00,
2013-02-14 07:21:00,42.0,38.0,30.13,WNW,285,0.0,1.0,86,0.00,,,0.00,,2013-02-14 15:21:00,
2013-02-14 07:31:00,42.0,38.0,30.13,WNW,285,0.0,1.0,86,0.00,,,0.00,,2013-02-14 15:31:00,
2013-02-14 07:52:00,45.0,40.0,30.14,WNW,285,0.0,2.0,82,0.00,,,0.00,,2013-02-14 15:52:00,
2013-02-14 08:01:00,47.0,41.0,30.14,WNW,285,2.0,2.0,79,0.00,,,0.00,,2013-02-14 16:01:00,
2013-02-14 08:11:00,47.0,41.0,30.14,WNW,285,2.0,2.0,79,0.00,,,0.00,,2013-02-14 16:11:00,
2013-02-14 08:21:00,47.0,41.0,30.14,WNW,285,2.0,2.0,79,0.00,,,0.00,,2013-02-14 16:21:00,
2013-02-14 08:31:00,50.0,42.0,30.16,WNW,287,1.0,2.0,74,0.00,,,0.00,,2013-02-14 16:31:00,
2013-02-14 08:41:00,50.0,42.0,30.16,WNW,287,1.0,2.0,74,0.00,,,0.00,,2013-02-14 16:41:00,
2013-02-14 08:52:00,50.0,42.0,30.16,WNW,287,1.0,2.0,74,0.00,,,0.00,,2013-02-14 16:52:00,
2013-02-14 09:01:00,53.0,43.0,30.16,NW,316,1.0,2.0,69,0.00,,,0.00,,2013-02-14 17:01:00,
2013-02-14 09:11:00,56.0,44.0,30.17,NW,307,0.0,3.0,63,0.00,,,0.00,,2013-02-14 17:11:00,
2013-02-14 09:21:00,56.0,44.0,30.17,NW,307,0.0,3.0,63,0.00,,,0.00,,2013-02-14 17:21:00,
2013-02-14 09:31:00,56.0,44.0,30.17,South,180,2.0,5.0,63,0.00,,,0.00,,2013-02-14 17:31:00,
2013-02-14 09:41:00,56.0,44.0,30.17,South,180,2.0,5.0,63,0.00,,,0.00,,2013-02-14 17:41:00,
2013-02-14 09:52:00,57.0,44.0,30.18,SSW,203,1.0,3.0,61,0.00,,,0.00,,2013-02-14 17:52:00,
2013-02-14 10:01:00,58.0,44.0,30.19,WNW,300,0.0,3.0,59,0.00,,,0.00,,2013-02-14 18:01:00,
2013-02-14 10:11:00,58.0,44.0,30.19,WNW,300,0.0,3.0,59,0.00,,,0.00,,2013-02-14 18:11:00,
2013-02-14 10:22:00,59.0,43.0,30.20,SSW,211,2.0,5.0,56,0.00,,,0.00,,2013-02-14 18:22:00,
2013-02-14 10:31:00,60.0,43.0,30.21,WSW,252,2.0,5.0,54,0.00,,,0.00,,2013-02-14 18:31:00,
2013-02-14 10:41:00,60.0,43.0,30.21,WSW,252,2.0,5.0,54,0.00,,,0.00,,2013-02-14 18:41:00,
2013-02-14 10:52:00,62.0,44.0,30.19,South,185,1.0,3.0,51,0.00,,,0.00,,2013-02-14 18:52:00,
2013-02-14 11:01:00,62.0,43.0,30.19,WNW,288,1.0,3.0,49,0.00,,,0.00,,2013-02-14 19:01:00,
2013-02-14 11:11:00,63.0,42.0,30.17,West,266,1.0,5.0,46,0.00,,,0.00,,2013-02-14 19:11:00,
2013-02-14 11:21:00,63.0,42.0,30.17,West,266,1.0,5.0,46,0.00,,,0.00,,2013-02-14 19:21:00,
2013-02-14 11:31:00,63.0,42.0,30.17,West,266,1.0,5.0,46,0.00,,,0.00,,2013-02-14 19:31:00,
2013-02-14 11:41:00,63.0,42.0,30.17,West,266,1.0,5.0,46,0.00,,,0.00,,2013-02-14 19:41:00,
2013-02-14 11:52:00,65.0,40.0,30.15,WNW,284,0.0,3.0,40,0.00,,,0.00,,2013-02-14 19:52:00,
2013-02-14 12:01:00,65.0,40.0,30.15,WNW,284,0.0,3.0,40,0.00,,,0.00,,2013-02-14 20:01:00,
2013-02-14 12:11:00,69.0,40.0,30.14,West,266,2.0,3.0,35,0.00,,,0.00,,2013-02-14 20:11:00,
2013-02-14 12:21:00,69.0,40.0,30.14,West,266,2.0,3.0,35,0.00,,,0.00,,2013-02-14 20:21:00,
2013-02-14 12:31:00,69.0,40.0,30.12,SW,231,1.0,3.0,35,0.00,,,0.00,,2013-02-14 20:31:00,
2013-02-14 12:42:00,69.0,40.0,30.12,SW,231,1.0,3.0,35,0.00,,,0.00,,2013-02-14 20:42:00,
2013-02-14 12:52:00,70.0,39.0,30.10,South,182,2.0,3.0,32,0.00,,,0.00,,2013-02-14 20:52:00,
2013-02-14 13:01:00,71.0,37.0,30.10,NNW,337,1.0,3.0,29,0.00,,,0.00,,2013-02-14 21:01:00,
2013-02-14 13:11:00,71.0,37.0,30.10,NNW,337,1.0,3.0,29,0.00,,,0.00,,2013-02-14 21:11:00,
2013-02-14 13:21:00,71.0,37.0,30.09,WSW,246,2.0,5.0,29,0.00,,,0.00,,2013-02-14 21:21:00,
2013-02-14 13:31:00,71.0,37.0,30.09,WSW,246,2.0,5.0,29,0.00,,,0.00,,2013-02-14 21:31:00,
2013-02-14 13:41:00,71.0,37.0,30.09,WSW,246,2.0,5.0,29,0.00,,,0.00,,2013-02-14 21:41:00,
2013-02-14 13:51:00,74.0,38.0,30.06,WSW,256,1.0,9.0,27,0.00,,,0.00,,2013-02-14 21:51:00,
2013-02-14 14:02:00,74.0,38.0,30.06,WSW,256,1.0,9.0,27,0.00,,,0.00,,2013-02-14 22:02:00,
2013-02-14 14:11:00,75.0,37.0,30.05,SW,219,2.0,5.0,25,0.00,,,0.00,,2013-02-14 22:11:00,
2013-02-14 14:21:00,75.0,37.0,30.05,SW,219,2.0,5.0,25,0.00,,,0.00,,2013-02-14 22:21:00,
2013-02-14 14:31:00,75.0,37.0,30.05,SW,219,2.0,5.0,25,0.00,,,0.00,,2013-02-14 22:31:00,
2013-02-14 14:42:00,75.0,37.0,30.05,SW,219,2.0,5.0,25,0.00,,,0.00,,2013-02-14 22:42:00,
2013-02-14 14:51:00,76.0,33.0,30.04,West,261,3.0,7.0,21,0.00,,,0.00,,2013-02-14 22:51:00,
2013-02-14 15:01:00,76.0,33.0,30.04,West,261,3.0,7.0,21,0.00,,,0.00,,2013-02-14 23:01:00,
2013-02-14 15:11:00,76.0,33.0,30.04,West,261,3.0,7.0,21,0.00,,,0.00,,2013-02-14 23:11:00,
2013-02-14 15:21:00,77.0,33.0,30.04,NW,315,3.0,7.0,20,0.00,,,0.00,,2013-02-14 23:21:00,
2013-02-14 15:31:00,77.0,33.0,30.03,WNW,282,3.0,8.0,20,0.00,,,0.00,,2013-02-14 23:31:00,
2013-02-14 15:42:00,77.0,33.0,30.03,WNW,282,3.0,8.0,20,0.00,,,0.00,,2013-02-14 23:42:00,
2013-02-14 15:52:00,76.0,41.0,30.04,WNW,290,4.0,9.0,29,0.00,,,0.00,,2013-02-14 23:52:00,
2013-02-14 16:01:00,75.0,45.0,30.04,West,265,7.0,10.0,35,0.00,,,0.00,,2013-02-15 00:01:00,
2013-02-14 16:21:00,74.0,46.0,30.04,West,277,7.0,10.0,37,0.00,,,0.00,,2013-02-15 00:21:00,
2013-02-14 16:31:00,73.0,47.0,30.05,West,265,5.0,10.0,40,0.00,,,0.00,,2013-02-15 00:31:00,
2013-02-14 16:41:00,73.0,47.0,30.05,West,265,5.0,10.0,40,0.00,,,0.00,,2013-02-15 00:41:00,
2013-02-14 16:52:00,70.0,48.0,30.05,WNW,289,8.0,12.0,46,0.00,,,0.00,,2013-02-15 00:52:00,
2013-02-14 17:01:00,68.0,47.0,30.05,WSW,252,7.0,12.0,47,0.00,,,0.00,,2013-02-15 01:01:00,
2013-02-14 17:11:00,68.0,47.0,30.05,WSW,252,7.0,12.0,47,0.00,,,0.00,,2013-02-15 01:11:00,
2013-02-14 17:21:00,66.0,45.0,30.06,West,274,6.0,12.0,47,0.00,,,0.00,,2013-02-15 01:21:00,
2013-02-14 17:31:00,65.0,45.0,30.06,WNW,296,6.0,9.0,49,0.00,,,0.00,,2013-02-15 01:31:00,
2013-02-14 17:41:00,65.0,45.0,30.06,WNW,296,6.0,9.0,49,0.00,,,0.00,,2013-02-15 01:41:00,
2013-02-14 17:51:00,64.0,45.0,30.06,WNW,295,7.0,12.0,50,0.00,,,0.00,,2013-02-15 01:51:00,
2013-02-14 18:01:00,64.0,47.0,30.07,WNW,300,2.0,6.0,55,0.00,,,0.00,,2013-02-15 02:01:00,
2013-02-14 18:11:00,63.0,47.0,30.08,WNW,294,4.0,7.0,56,0.00,,,0.00,,2013-02-15 02:11:00,
2013-02-14 18:21:00,63.0,47.0,30.08,WNW,294,4.0,7.0,56,0.00,,,0.00,,2013-02-15 02:21:00,
2013-02-14 18:31:00,63.0,47.0,30.08,WNW,294,4.0,7.0,56,0.00,,,0.00,,2013-02-15 02:31:00,
2013-02-14 18:41:00,63.0,47.0,30.08,WNW,294,4.0,7.0,56,0.00,,,0.00,,2013-02-15 02:41:00,
2013-02-14 18:52:00,62.0,46.0,30.08,WNW,283,2.0,5.0,56,0.00,,,0.00,,2013-02-15 02:52:00,
2013-02-14 19:02:00,61.0,46.0,30.10,West,279,1.0,3.0,58,0.00,,,0.00,,2013-02-15 03:02:00,
2013-02-14 19:11:00,61.0,46.0,30.10,West,279,1.0,3.0,58,0.00,,,0.00,,2013-02-15 03:11:00,
2013-02-14 19:21:00,61.0,46.0,30.10,West,279,1.0,3.0,58,0.00,,,0.00,,2013-02-15 03:21:00,
2013-02-14 19:32:00,60.0,46.0,30.10,NW,310,0.0,5.0,59,0.00,,,0.00,,2013-02-15 03:32:00,
2013-02-14 19:41:00,60.0,46.0,30.10,NW,310,0.0,5.0,59,0.00,,,0.00,,2013-02-15 03:41:00,
2013-02-14 19:52:00,59.0,46.0,30.10,NW,309,0.0,2.0,61,0.00,,,0.00,,2013-02-15 03:52:00,
2013-02-14 20:01:00,58.0,45.0,30.11,NW,310,0.0,0.0,62,0.00,,,0.00,,2013-02-15 04:01:00,
2013-02-14 20:11:00,58.0,45.0,30.11,NW,310,0.0,0.0,62,0.00,,,0.00,,2013-02-15 04:11:00,
2013-02-14 20:21:00,57.0,45.0,30.11,NW,310,0.0,1.0,64,0.00,,,0.00,,2013-02-15 04:21:00,
2013-02-14 20:31:00,57.0,45.0,30.11,NW,310,0.0,1.0,64,0.00,,,0.00,,2013-02-15 04:31:00,
2013-02-14 20:41:00,57.0,45.0,30.11,NW,310,0.0,1.0,64,0.00,,,0.00,,2013-02-15 04:41:00,
2013-02-14 20:52:00,57.0,45.0,30.11,NW,307,0.0,3.0,64,0.00,,,0.00,,2013-02-15 04:52:00,
2013-02-14 21:01:00,57.0,45.0,30.12,NW,307,0.0,1.0,64,0.00,,,0.00,,2013-02-15 05:01:00,
2013-02-14 21:11:00,57.0,45.0,30.12,NW,307,0.0,1.0,64,0.00,,,0.00,,2013-02-15 05:11:00,
2013-02-14 21:22:00,56.0,44.0,30.12,NNW,347,1.0,2.0,65,0.00,,,0.00,,2013-02-15 05:22:00,
2013-02-14 21:32:00,55.0,45.0,30.14,North,5,0.0,2.0,69,0.00,,,0.00,,2013-02-15 05:32:00,
2013-02-14 21:41:00,55.0,45.0,30.14,North,5,0.0,2.0,69,0.00,,,0.00,,2013-02-15 05:41:00,
2013-02-14 21:52:00,55.0,45.0,30.14,North,5,0.0,0.0,70,0.00,,,0.00,,2013-02-15 05:52:00,
2013-02-14 22:01:00,54.0,45.0,30.14,North,5,1.0,2.0,71,0.00,,,0.00,,2013-02-15 06:01:00,
2013-02-14 22:11:00,54.0,45.0,30.14,North,5,0.0,1.0,72,0.00,,,0.00,,2013-02-15 06:11:00,
2013-02-14 22:21:00,54.0,45.0,30.14,North,5,0.0,1.0,72,0.00,,,0.00,,2013-02-15 06:21:00,
2013-02-14 22:31:00,53.0,45.0,30.15,North,5,0.0,2.0,73,0.00,,,0.00,,2013-02-15 06:31:00,
2013-02-14 22:41:00,53.0,45.0,30.15,North,5,0.0,2.0,73,0.00,,,0.00,,2013-02-15 06:41:00,
2013-02-14 22:52:00,53.0,45.0,30.15,North,5,0.0,1.0,74,0.00,,,0.00,,2013-02-15 06:52:00,
2013-02-14 23:01:00,52.0,44.0,30.14,NNE,12,1.0,3.0,73,0.00,,,0.00,,2013-02-15 07:01:00,
2013-02-14 23:11:00,52.0,44.0,30.14,NNE,12,1.0,3.0,73,0.00,,,0.00,,2013-02-15 07:11:00,
2013-02-14 23:21:00,53.0,44.0,30.14,NNE,12,0.0,1.0,71,0.00,,,0.00,,2013-02-15 07:21:00,
2013-02-14 23:31:00,53.0,44.0,30.14,North,11,2.0,3.0,71,0.00,,,0.00,,2013-02-15 07:31:00,
2013-02-14 23:41:00,53.0,44.0,30.14,North,11,2.0,3.0,71,0.00,,,0.00,,2013-02-15 07:41:00,
2013-02-14 23:52:00,53.0,43.0,30.14,North,9,1.0,2.0,70,0.00,,,0.00,,2013-02-15 07:52:00,